Pagina principale
METAR-TAF:

METAR-TAF

Aeroporti :

Aeroporto militare

Landivisiau, Francia

latitudine: 48-31N, longitudine: 004-09W, altezza: 106 m

Osservazione

Il bollettino è stato emesso 21 minuti fa, alle 06:00 UTC
Vento 3 kt da nord-est
Temperature 6°C
Umidità 93%
Pressione 1015 hPa
Visibilità 10 km o più
Poco nuvoloso ad un'altezza di 4800 ft
Nuvoloso ad un'altezza di 5600 ft

METAR: LFRJ 180600Z AUTO 04003KT 9999 FEW048 BKN056 06/05 Q1015 TEMPO 4000 -SHRA SCT020TCU

Ora: 07:21 (06:21 UTC)

Previsione

Il bollettino è stato emesso 1 ora e 21 minuti fa, alle 05:00 UTC
Previsione valida dal 18 alle 06 UTC al 18 alle 15 UTC
Vento 4 kt da nord
Visibilità 10 km o più
Nuvoloso ad un'altezza di 3500 ft
Temporaneamente
dal 18 alle 06 UTC al 18 alle 13 UTC
Visibilità: 4000 m
Nubi sparse ad un'altezza di 2000 ft, Cumulo congesto.
rovesci di pioggia

TAF: LFRJ 180500Z 1806/1815 01004KT 9999 BKN035 TEMPO 1806/1813 4000 -SHRA SCT020TCU

Osservazioni e previsioni meteorologiche di più di 4000 aeroporti (messaggi METAR e TAF).

Le stazioni disponibili sono rappresentate dai dischi gialli e rossi sulla carta.

Puntare il mouse per vedere il nome della stazione.

Clicca sopra per visualizzare le osservazioni e previsioni meteorologiche.

Per cambiare la mappa : fare clic sui pulsanti verdi con una croce nera per ingrandire, il pulsante verde con un trattino per diminuire, o sulla freccia verde per le mappe adiacenti.


METAR-TAF: